sensor_id;sensor_type;location;lat;lon;timestamp;P1;durP1;ratioP1;P2;durP2;ratioP2
48526;SDS011;34317;51.660;5.824;2023-02-22T00:01:54;42.15;;;20.65;;
48526;SDS011;34317;51.660;5.824;2023-02-22T00:04:42;39.10;;;19.20;;
48526;SDS011;34317;51.660;5.824;2023-02-22T00:07:09;44.00;;;20.90;;
48526;SDS011;34317;51.660;5.824;2023-02-22T00:09:36;45.28;;;21.63;;
48526;SDS011;34317;51.660;5.824;2023-02-22T00:12:03;42.75;;;20.38;;
48526;SDS011;34317;51.660;5.824;2023-02-22T00:14:31;42.92;;;21.17;;
48526;SDS011;34317;51.660;5.824;2023-02-22T00:16:58;44.33;;;21.50;;
48526;SDS011;34317;51.660;5.824;2023-02-22T00:19:26;47.03;;;22.17;;
48526;SDS011;34317;51.660;5.824;2023-02-22T00:21:57;41.97;;;20.58;;
48526;SDS011;34317;51.660;5.824;2023-02-22T00:24:24;45.40;;;21.27;;
48526;SDS011;34317;51.660;5.824;2023-02-22T00:26:52;42.90;;;21.50;;
48526;SDS011;34317;51.660;5.824;2023-02-22T00:29:22;47.17;;;21.27;;
48526;SDS011;34317;51.660;5.824;2023-02-22T00:31:50;46.20;;;20.63;;
48526;SDS011;34317;51.660;5.824;2023-02-22T00:34:17;42.85;;;19.60;;
48526;SDS011;34317;51.660;5.824;2023-02-22T00:36:45;39.20;;;18.42;;
48526;SDS011;34317;51.660;5.824;2023-02-22T00:39:13;44.78;;;20.17;;
48526;SDS011;34317;51.660;5.824;2023-02-22T00:41:41;43.90;;;21.33;;
48526;SDS011;34317;51.660;5.824;2023-02-22T00:44:09;42.35;;;19.83;;
48526;SDS011;34317;51.660;5.824;2023-02-22T00:46:38;43.30;;;19.00;;
48526;SDS011;34317;51.660;5.824;2023-02-22T00:49:05;42.03;;;19.48;;
48526;SDS011;34317;51.660;5.824;2023-02-22T00:51:32;44.25;;;19.02;;
48526;SDS011;34317;51.660;5.824;2023-02-22T00:54:00;42.00;;;19.20;;
48526;SDS011;34317;51.660;5.824;2023-02-22T00:56:27;41.10;;;19.42;;
48526;SDS011;34317;51.660;5.824;2023-02-22T00:58:54;39.90;;;18.27;;
48526;SDS011;34317;51.660;5.824;2023-02-22T01:01:22;39.05;;;18.38;;
48526;SDS011;34317;51.660;5.824;2023-02-22T01:03:50;44.28;;;19.35;;
48526;SDS011;34317;51.660;5.824;2023-02-22T01:06:17;42.05;;;19.08;;
48526;SDS011;34317;51.660;5.824;2023-02-22T01:08:45;43.75;;;19.45;;
48526;SDS011;34317;51.660;5.824;2023-02-22T01:11:15;45.83;;;18.35;;
48526;SDS011;34317;51.660;5.824;2023-02-22T01:13:43;45.22;;;19.85;;
48526;SDS011;34317;51.660;5.824;2023-02-22T01:16:13;40.70;;;18.83;;
48526;SDS011;34317;51.660;5.824;2023-02-22T01:18:40;46.33;;;19.55;;
48526;SDS011;34317;51.660;5.824;2023-02-22T01:21:07;47.42;;;19.42;;
48526;SDS011;34317;51.660;5.824;2023-02-22T01:23:35;44.42;;;19.85;;
48526;SDS011;34317;51.660;5.824;2023-02-22T01:26:03;46.08;;;19.75;;
48526;SDS011;34317;51.660;5.824;2023-02-22T01:28:32;45.38;;;20.08;;
48526;SDS011;34317;51.660;5.824;2023-02-22T01:31:01;46.72;;;20.05;;
48526;SDS011;34317;51.660;5.824;2023-02-22T01:33:29;45.70;;;20.85;;
48526;SDS011;34317;51.660;5.824;2023-02-22T01:35:56;43.30;;;19.52;;
48526;SDS011;34317;51.660;5.824;2023-02-22T01:38:26;45.85;;;19.83;;
48526;SDS011;34317;51.660;5.824;2023-02-22T01:40:53;47.85;;;19.63;;
48526;SDS011;34317;51.660;5.824;2023-02-22T01:43:27;48.72;;;20.83;;
48526;SDS011;34317;51.660;5.824;2023-02-22T01:48:31;45.15;;;20.48;;
48526;SDS011;34317;51.660;5.824;2023-02-22T01:51:16;45.25;;;21.08;;
48526;SDS011;34317;51.660;5.824;2023-02-22T01:54:00;44.67;;;19.73;;
48526;SDS011;34317;51.660;5.824;2023-02-22T01:56:33;45.88;;;20.05;;
48526;SDS011;34317;51.660;5.824;2023-02-22T01:59:05;41.17;;;19.75;;
48526;SDS011;34317;51.660;5.824;2023-02-22T02:01:39;46.30;;;20.77;;
48526;SDS011;34317;51.660;5.824;2023-02-22T02:04:11;47.20;;;20.95;;
48526;SDS011;34317;51.660;5.824;2023-02-22T02:06:43;47.70;;;20.97;;
48526;SDS011;34317;51.660;5.824;2023-02-22T02:12:18;46.30;;;21.30;;
48526;SDS011;34317;51.660;5.824;2023-02-22T02:14:50;46.95;;;21.40;;
48526;SDS011;34317;51.660;5.824;2023-02-22T02:17:20;47.38;;;22.38;;
48526;SDS011;34317;51.660;5.824;2023-02-22T02:20:01;50.05;;;21.60;;
48526;SDS011;34317;51.660;5.824;2023-02-22T02:22:46;50.30;;;22.35;;
48526;SDS011;34317;51.660;5.824;2023-02-22T02:33:55;53.60;;;23.50;;
48526;SDS011;34317;51.660;5.824;2023-02-22T02:41:54;52.80;;;23.05;;
48526;SDS011;34317;51.660;5.824;2023-02-22T02:47:25;53.63;;;23.00;;
48526;SDS011;34317;51.660;5.824;2023-02-22T02:52:23;54.63;;;22.83;;
48526;SDS011;34317;51.660;5.824;2023-02-22T02:54:53;52.50;;;23.23;;
48526;SDS011;34317;51.660;5.824;2023-02-22T02:57:21;55.30;;;22.38;;
48526;SDS011;34317;51.660;5.824;2023-02-22T02:59:48;55.25;;;23.60;;
48526;SDS011;34317;51.660;5.824;2023-02-22T03:04:57;51.85;;;21.92;;
48526;SDS011;34317;51.660;5.824;2023-02-22T03:15:55;53.88;;;23.00;;
48526;SDS011;34317;51.660;5.824;2023-02-22T03:21:21;63.40;;;23.58;;
48526;SDS011;34317;51.660;5.824;2023-02-22T03:24:00;55.20;;;23.35;;
48526;SDS011;34317;51.660;5.824;2023-02-22T03:26:33;55.45;;;23.20;;
48526;SDS011;34317;51.660;5.824;2023-02-22T03:29:07;60.20;;;23.30;;
48526;SDS011;34317;51.660;5.824;2023-02-22T03:31:49;64.60;;;23.90;;
48526;SDS011;34317;51.660;5.824;2023-02-22T03:34:28;69.20;;;23.95;;
48526;SDS011;34317;51.660;5.824;2023-02-22T03:37:21;67.40;;;23.45;;
48526;SDS011;34317;51.660;5.824;2023-02-22T03:39:52;67.63;;;25.15;;
48526;SDS011;34317;51.660;5.824;2023-02-22T03:42:22;75.70;;;25.77;;
48526;SDS011;34317;51.660;5.824;2023-02-22T03:44:55;100.65;;;23.52;;
48526;SDS011;34317;51.660;5.824;2023-02-22T03:47:40;91.03;;;24.13;;
48526;SDS011;34317;51.660;5.824;2023-02-22T03:50:13;111.85;;;23.13;;
48526;SDS011;34317;51.660;5.824;2023-02-22T03:52:47;162.80;;;24.85;;
48526;SDS011;34317;51.660;5.824;2023-02-22T03:55:22;82.88;;;23.95;;
48526;SDS011;34317;51.660;5.824;2023-02-22T03:57:51;99.35;;;24.42;;
48526;SDS011;34317;51.660;5.824;2023-02-22T04:00:26;133.52;;;25.77;;
48526;SDS011;34317;51.660;5.824;2023-02-22T04:02:56;122.30;;;24.23;;
48526;SDS011;34317;51.660;5.824;2023-02-22T04:05:24;125.70;;;24.27;;
48526;SDS011;34317;51.660;5.824;2023-02-22T04:07:53;148.38;;;24.73;;
48526;SDS011;34317;51.660;5.824;2023-02-22T04:10:21;84.75;;;25.10;;
48526;SDS011;34317;51.660;5.824;2023-02-22T04:12:50;145.55;;;22.45;;
48526;SDS011;34317;51.660;5.824;2023-02-22T04:15:19;106.25;;;23.42;;
48526;SDS011;34317;51.660;5.824;2023-02-22T04:17:50;110.05;;;22.85;;
48526;SDS011;34317;51.660;5.824;2023-02-22T04:20:18;180.80;;;25.10;;
48526;SDS011;34317;51.660;5.824;2023-02-22T04:22:59;168.57;;;23.85;;
48526;SDS011;34317;51.660;5.824;2023-02-22T04:25:28;191.73;;;25.30;;
48526;SDS011;34317;51.660;5.824;2023-02-22T04:27:55;106.38;;;22.90;;
48526;SDS011;34317;51.660;5.824;2023-02-22T04:30:35;143.93;;;23.15;;
48526;SDS011;34317;51.660;5.824;2023-02-22T04:33:06;83.60;;;22.02;;
48526;SDS011;34317;51.660;5.824;2023-02-22T04:35:34;131.15;;;22.55;;
48526;SDS011;34317;51.660;5.824;2023-02-22T04:38:03;102.75;;;23.33;;
48526;SDS011;34317;51.660;5.824;2023-02-22T04:40:31;129.32;;;21.65;;
48526;SDS011;34317;51.660;5.824;2023-02-22T04:42:58;113.65;;;21.75;;
48526;SDS011;34317;51.660;5.824;2023-02-22T04:45:26;133.77;;;21.60;;
48526;SDS011;34317;51.660;5.824;2023-02-22T04:47:54;126.78;;;20.40;;
48526;SDS011;34317;51.660;5.824;2023-02-22T04:50:21;94.75;;;20.83;;
48526;SDS011;34317;51.660;5.824;2023-02-22T04:52:48;81.45;;;20.55;;
48526;SDS011;34317;51.660;5.824;2023-02-22T04:55:15;87.15;;;21.02;;
48526;SDS011;34317;51.660;5.824;2023-02-22T04:57:43;136.25;;;21.52;;
48526;SDS011;34317;51.660;5.824;2023-02-22T05:00:14;99.30;;;21.02;;
48526;SDS011;34317;51.660;5.824;2023-02-22T05:02:43;101.90;;;20.27;;
48526;SDS011;34317;51.660;5.824;2023-02-22T05:05:12;92.47;;;20.98;;
48526;SDS011;34317;51.660;5.824;2023-02-22T05:07:40;66.15;;;19.88;;
48526;SDS011;34317;51.660;5.824;2023-02-22T05:10:08;116.93;;;21.50;;
48526;SDS011;34317;51.660;5.824;2023-02-22T05:12:37;133.15;;;20.75;;
48526;SDS011;34317;51.660;5.824;2023-02-22T05:15:05;94.38;;;20.52;;
48526;SDS011;34317;51.660;5.824;2023-02-22T05:17:33;72.25;;;21.10;;
48526;SDS011;34317;51.660;5.824;2023-02-22T05:20:02;103.72;;;20.92;;
48526;SDS011;34317;51.660;5.824;2023-02-22T05:22:30;113.82;;;20.90;;
48526;SDS011;34317;51.660;5.824;2023-02-22T05:24:57;69.75;;;21.25;;
48526;SDS011;34317;51.660;5.824;2023-02-22T05:27:25;90.93;;;20.70;;
48526;SDS011;34317;51.660;5.824;2023-02-22T05:29:52;86.72;;;19.73;;
48526;SDS011;34317;51.660;5.824;2023-02-22T05:32:19;94.05;;;22.00;;
48526;SDS011;34317;51.660;5.824;2023-02-22T05:34:46;77.68;;;20.02;;
48526;SDS011;34317;51.660;5.824;2023-02-22T05:37:13;101.35;;;21.13;;
48526;SDS011;34317;51.660;5.824;2023-02-22T05:39:41;86.57;;;20.33;;
48526;SDS011;34317;51.660;5.824;2023-02-22T05:42:08;84.97;;;20.98;;
48526;SDS011;34317;51.660;5.824;2023-02-22T05:44:35;75.60;;;21.00;;
48526;SDS011;34317;51.660;5.824;2023-02-22T05:47:02;83.72;;;20.88;;
48526;SDS011;34317;51.660;5.824;2023-02-22T05:49:31;93.78;;;21.10;;
48526;SDS011;34317;51.660;5.824;2023-02-22T05:51:58;74.00;;;20.58;;
48526;SDS011;34317;51.660;5.824;2023-02-22T05:54:25;73.03;;;21.55;;
48526;SDS011;34317;51.660;5.824;2023-02-22T05:56:52;58.10;;;20.00;;
48526;SDS011;34317;51.660;5.824;2023-02-22T05:59:20;72.13;;;21.00;;
48526;SDS011;34317;51.660;5.824;2023-02-22T06:01:47;77.13;;;20.67;;
48526;SDS011;34317;51.660;5.824;2023-02-22T06:04:14;68.70;;;20.10;;
48526;SDS011;34317;51.660;5.824;2023-02-22T06:06:41;63.47;;;21.25;;
48526;SDS011;34317;51.660;5.824;2023-02-22T06:09:08;60.30;;;20.08;;
48526;SDS011;34317;51.660;5.824;2023-02-22T06:11:36;67.35;;;19.77;;
48526;SDS011;34317;51.660;5.824;2023-02-22T06:14:03;50.13;;;19.02;;
48526;SDS011;34317;51.660;5.824;2023-02-22T06:16:30;47.05;;;18.92;;
48526;SDS011;34317;51.660;5.824;2023-02-22T06:18:57;52.80;;;18.27;;
48526;SDS011;34317;51.660;5.824;2023-02-22T06:21:26;59.95;;;20.23;;
48526;SDS011;34317;51.660;5.824;2023-02-22T06:23:53;53.38;;;19.23;;
48526;SDS011;34317;51.660;5.824;2023-02-22T06:26:20;67.63;;;20.63;;
48526;SDS011;34317;51.660;5.824;2023-02-22T06:28:48;74.13;;;20.95;;
48526;SDS011;34317;51.660;5.824;2023-02-22T06:31:16;66.28;;;20.83;;
48526;SDS011;34317;51.660;5.824;2023-02-22T06:33:43;64.22;;;20.40;;
48526;SDS011;34317;51.660;5.824;2023-02-22T06:36:10;43.50;;;13.32;;
48526;SDS011;34317;51.660;5.824;2023-02-22T06:38:38;34.60;;;12.35;;
48526;SDS011;34317;51.660;5.824;2023-02-22T06:41:05;37.33;;;13.07;;
48526;SDS011;34317;51.660;5.824;2023-02-22T06:43:34;39.22;;;13.50;;
48526;SDS011;34317;51.660;5.824;2023-02-22T06:46:02;38.92;;;13.20;;
48526;SDS011;34317;51.660;5.824;2023-02-22T06:48:29;38.97;;;13.38;;
48526;SDS011;34317;51.660;5.824;2023-02-22T06:50:56;44.47;;;13.38;;
48526;SDS011;34317;51.660;5.824;2023-02-22T06:53:23;39.33;;;13.38;;
48526;SDS011;34317;51.660;5.824;2023-02-22T06:55:52;45.15;;;14.18;;
48526;SDS011;34317;51.660;5.824;2023-02-22T06:58:20;51.75;;;14.60;;
48526;SDS011;34317;51.660;5.824;2023-02-22T07:00:47;47.80;;;14.55;;
48526;SDS011;34317;51.660;5.824;2023-02-22T07:03:14;49.50;;;14.68;;
48526;SDS011;34317;51.660;5.824;2023-02-22T07:05:42;47.92;;;13.85;;
48526;SDS011;34317;51.660;5.824;2023-02-22T07:08:11;49.70;;;14.23;;
48526;SDS011;34317;51.660;5.824;2023-02-22T07:10:39;53.97;;;14.10;;
48526;SDS011;34317;51.660;5.824;2023-02-22T07:13:07;56.72;;;15.73;;
48526;SDS011;34317;51.660;5.824;2023-02-22T07:15:37;48.83;;;15.02;;
48526;SDS011;34317;51.660;5.824;2023-02-22T07:18:04;54.10;;;14.38;;
48526;SDS011;34317;51.660;5.824;2023-02-22T07:20:31;48.17;;;14.43;;
48526;SDS011;34317;51.660;5.824;2023-02-22T07:22:59;49.05;;;14.70;;
48526;SDS011;34317;51.660;5.824;2023-02-22T07:25:27;53.63;;;14.13;;
48526;SDS011;34317;51.660;5.824;2023-02-22T07:27:54;45.03;;;13.68;;
48526;SDS011;34317;51.660;5.824;2023-02-22T07:30:22;49.63;;;14.23;;
48526;SDS011;34317;51.660;5.824;2023-02-22T07:32:52;50.40;;;14.48;;
48526;SDS011;34317;51.660;5.824;2023-02-22T07:35:22;45.83;;;13.95;;
48526;SDS011;34317;51.660;5.824;2023-02-22T07:37:54;49.38;;;14.40;;
48526;SDS011;34317;51.660;5.824;2023-02-22T07:40:24;44.67;;;14.02;;
48526;SDS011;34317;51.660;5.824;2023-02-22T07:42:56;44.60;;;13.80;;
48526;SDS011;34317;51.660;5.824;2023-02-22T07:45:25;49.88;;;13.77;;
48526;SDS011;34317;51.660;5.824;2023-02-22T07:47:58;44.85;;;12.75;;
48526;SDS011;34317;51.660;5.824;2023-02-22T07:50:27;43.20;;;13.43;;
48526;SDS011;34317;51.660;5.824;2023-02-22T07:52:59;40.50;;;13.02;;
48526;SDS011;34317;51.660;5.824;2023-02-22T07:55:29;49.40;;;14.30;;
48526;SDS011;34317;51.660;5.824;2023-02-22T07:57:58;44.08;;;13.43;;
48526;SDS011;34317;51.660;5.824;2023-02-22T08:00:32;46.40;;;14.57;;
48526;SDS011;34317;51.660;5.824;2023-02-22T08:03:01;40.92;;;13.27;;
48526;SDS011;34317;51.660;5.824;2023-02-22T08:05:31;37.22;;;12.93;;
48526;SDS011;34317;51.660;5.824;2023-02-22T08:07:59;41.58;;;13.38;;
48526;SDS011;34317;51.660;5.824;2023-02-22T08:10:27;40.30;;;13.13;;
48526;SDS011;34317;51.660;5.824;2023-02-22T08:12:56;41.28;;;13.63;;
48526;SDS011;34317;51.660;5.824;2023-02-22T08:15:29;45.10;;;13.38;;
48526;SDS011;34317;51.660;5.824;2023-02-22T08:17:59;39.28;;;13.18;;
48526;SDS011;34317;51.660;5.824;2023-02-22T08:20:28;44.22;;;13.85;;
48526;SDS011;34317;51.660;5.824;2023-02-22T08:22:56;41.05;;;13.45;;
48526;SDS011;34317;51.660;5.824;2023-02-22T08:25:25;44.53;;;14.48;;
48526;SDS011;34317;51.660;5.824;2023-02-22T08:28:00;44.53;;;14.05;;
48526;SDS011;34317;51.660;5.824;2023-02-22T08:30:30;42.72;;;13.20;;
48526;SDS011;34317;51.660;5.824;2023-02-22T08:33:01;45.05;;;13.77;;
48526;SDS011;34317;51.660;5.824;2023-02-22T08:35:29;44.55;;;14.07;;
48526;SDS011;34317;51.660;5.824;2023-02-22T08:38:03;39.88;;;13.20;;
48526;SDS011;34317;51.660;5.824;2023-02-22T08:40:32;44.95;;;14.65;;
48526;SDS011;34317;51.660;5.824;2023-02-22T08:43:01;40.78;;;13.57;;
48526;SDS011;34317;51.660;5.824;2023-02-22T08:45:29;43.67;;;14.10;;
48526;SDS011;34317;51.660;5.824;2023-02-22T08:47:57;38.88;;;14.18;;
48526;SDS011;34317;51.660;5.824;2023-02-22T08:50:26;44.97;;;14.57;;
48526;SDS011;34317;51.660;5.824;2023-02-22T08:52:56;47.75;;;15.88;;
48526;SDS011;34317;51.660;5.824;2023-02-22T08:55:27;47.70;;;15.18;;
48526;SDS011;34317;51.660;5.824;2023-02-22T08:57:59;45.83;;;15.68;;
48526;SDS011;34317;51.660;5.824;2023-02-22T09:00:29;41.42;;;14.10;;
48526;SDS011;34317;51.660;5.824;2023-02-22T09:03:01;39.95;;;14.35;;
48526;SDS011;34317;51.660;5.824;2023-02-22T09:05:29;43.53;;;14.27;;
48526;SDS011;34317;51.660;5.824;2023-02-22T09:07:58;34.45;;;13.80;;
48526;SDS011;34317;51.660;5.824;2023-02-22T09:10:27;42.03;;;15.02;;
48526;SDS011;34317;51.660;5.824;2023-02-22T09:12:57;43.28;;;14.65;;
48526;SDS011;34317;51.660;5.824;2023-02-22T09:15:27;40.50;;;14.68;;
48526;SDS011;34317;51.660;5.824;2023-02-22T09:17:54;39.72;;;15.23;;
48526;SDS011;34317;51.660;5.824;2023-02-22T09:20:22;45.88;;;16.40;;
48526;SDS011;34317;51.660;5.824;2023-02-22T09:22:51;48.28;;;16.08;;
48526;SDS011;34317;51.660;5.824;2023-02-22T09:25:19;46.92;;;16.60;;
48526;SDS011;34317;51.660;5.824;2023-02-22T09:27:47;45.58;;;17.33;;
48526;SDS011;34317;51.660;5.824;2023-02-22T09:30:29;42.88;;;17.15;;
48526;SDS011;34317;51.660;5.824;2023-02-22T09:33:02;47.42;;;17.60;;
48526;SDS011;34317;51.660;5.824;2023-02-22T09:35:36;46.40;;;17.65;;
48526;SDS011;34317;51.660;5.824;2023-02-22T09:38:08;48.53;;;18.15;;
48526;SDS011;34317;51.660;5.824;2023-02-22T09:40:41;41.80;;;16.45;;
48526;SDS011;34317;51.660;5.824;2023-02-22T09:48:33;41.75;;;16.15;;
48526;SDS011;34317;51.660;5.824;2023-02-22T09:51:09;36.25;;;15.35;;
48526;SDS011;34317;51.660;5.824;2023-02-22T09:53:44;38.38;;;15.57;;
48526;SDS011;34317;51.660;5.824;2023-02-22T09:56:16;38.05;;;16.05;;
48526;SDS011;34317;51.660;5.824;2023-02-22T09:58:48;38.17;;;15.32;;
48526;SDS011;34317;51.660;5.824;2023-02-22T10:06:27;37.22;;;15.95;;
48526;SDS011;34317;51.660;5.824;2023-02-22T10:08:57;36.22;;;15.80;;
48526;SDS011;34317;51.660;5.824;2023-02-22T10:11:33;34.10;;;15.15;;
48526;SDS011;34317;51.660;5.824;2023-02-22T10:14:37;37.50;;;15.07;;
48526;SDS011;34317;51.660;5.824;2023-02-22T10:17:14;37.40;;;15.68;;
48526;SDS011;34317;51.660;5.824;2023-02-22T10:20:03;39.33;;;15.55;;
48526;SDS011;34317;51.660;5.824;2023-02-22T10:25:22;37.55;;;16.75;;
48526;SDS011;34317;51.660;5.824;2023-02-22T10:30:42;37.80;;;16.25;;
48526;SDS011;34317;51.660;5.824;2023-02-22T10:33:22;35.95;;;15.45;;
48526;SDS011;34317;51.660;5.824;2023-02-22T10:35:53;33.85;;;15.10;;
48526;SDS011;34317;51.660;5.824;2023-02-22T10:38:25;36.17;;;15.50;;
48526;SDS011;34317;51.660;5.824;2023-02-22T10:40:59;31.20;;;14.82;;
48526;SDS011;34317;51.660;5.824;2023-02-22T10:43:30;32.00;;;14.23;;
48526;SDS011;34317;51.660;5.824;2023-02-22T10:45:59;29.23;;;13.57;;
48526;SDS011;34317;51.660;5.824;2023-02-22T10:48:30;27.98;;;13.48;;
48526;SDS011;34317;51.660;5.824;2023-02-22T10:51:02;28.75;;;13.45;;
48526;SDS011;34317;51.660;5.824;2023-02-22T10:53:31;28.58;;;13.60;;
48526;SDS011;34317;51.660;5.824;2023-02-22T11:06:42;29.95;;;13.52;;
48526;SDS011;34317;51.660;5.824;2023-02-22T11:09:14;31.88;;;13.45;;
48526;SDS011;34317;51.660;5.824;2023-02-22T11:11:50;24.75;;;12.77;;
48526;SDS011;34317;51.660;5.824;2023-02-22T11:17:04;27.70;;;11.63;;
48526;SDS011;34317;51.660;5.824;2023-02-22T11:19:33;25.67;;;11.25;;
48526;SDS011;34317;51.660;5.824;2023-02-22T11:24:31;19.83;;;10.45;;
48526;SDS011;34317;51.660;5.824;2023-02-22T11:27:23;20.08;;;9.80;;
48526;SDS011;34317;51.660;5.824;2023-02-22T11:29:55;20.92;;;9.73;;
48526;SDS011;34317;51.660;5.824;2023-02-22T11:32:34;21.02;;;11.25;;
48526;SDS011;34317;51.660;5.824;2023-02-22T11:36:03;23.65;;;12.05;;
48526;SDS011;34317;51.660;5.824;2023-02-22T11:38:13;23.45;;;12.35;;
48526;SDS011;34317;51.660;5.824;2023-02-22T11:40:43;21.05;;;10.75;;
48526;SDS011;34317;51.660;5.824;2023-02-22T11:43:15;19.40;;;10.93;;
48526;SDS011;34317;51.660;5.824;2023-02-22T11:46:01;17.67;;;9.93;;
48526;SDS011;34317;51.660;5.824;2023-02-22T11:48:31;17.05;;;10.07;;
48526;SDS011;34317;51.660;5.824;2023-02-22T11:51:05;15.65;;;9.48;;
48526;SDS011;34317;51.660;5.824;2023-02-22T11:53:46;20.20;;;10.23;;
48526;SDS011;34317;51.660;5.824;2023-02-22T11:56:21;16.63;;;10.13;;
48526;SDS011;34317;51.660;5.824;2023-02-22T12:07:55;17.10;;;10.68;;
48526;SDS011;34317;51.660;5.824;2023-02-22T12:13:08;17.52;;;11.13;;
48526;SDS011;34317;51.660;5.824;2023-02-22T12:15:54;27.90;;;12.25;;
48526;SDS011;34317;51.660;5.824;2023-02-22T12:21:02;19.38;;;11.88;;
48526;SDS011;34317;51.660;5.824;2023-02-22T12:23:42;18.95;;;11.95;;
48526;SDS011;34317;51.660;5.824;2023-02-22T12:26:32;16.75;;;10.82;;
48526;SDS011;34317;51.660;5.824;2023-02-22T12:29:14;21.17;;;11.38;;
48526;SDS011;34317;51.660;5.824;2023-02-22T12:34:33;19.75;;;12.15;;
48526;SDS011;34317;51.660;5.824;2023-02-22T12:37:24;20.40;;;11.70;;
48526;SDS011;34317;51.660;5.824;2023-02-22T12:42:26;19.08;;;11.32;;
48526;SDS011;34317;51.660;5.824;2023-02-22T12:44:58;18.25;;;11.82;;
48526;SDS011;34317;51.660;5.824;2023-02-22T12:47:41;18.58;;;11.60;;
48526;SDS011;34317;51.660;5.824;2023-02-22T12:50:22;19.25;;;11.88;;
48526;SDS011;34317;51.660;5.824;2023-02-22T12:52:59;19.40;;;12.73;;
48526;SDS011;34317;51.660;5.824;2023-02-22T12:55:43;18.97;;;12.20;;
48526;SDS011;34317;51.660;5.824;2023-02-22T13:01:00;18.67;;;11.15;;
48526;SDS011;34317;51.660;5.824;2023-02-22T13:03:42;22.70;;;12.25;;
48526;SDS011;34317;51.660;5.824;2023-02-22T13:11:57;20.63;;;12.55;;
48526;SDS011;34317;51.660;5.824;2023-02-22T13:17:27;23.50;;;12.10;;
48526;SDS011;34317;51.660;5.824;2023-02-22T13:28:32;19.13;;;12.55;;
48526;SDS011;34317;51.660;5.824;2023-02-22T13:36:47;20.13;;;12.52;;
48526;SDS011;34317;51.660;5.824;2023-02-22T13:40:01;22.15;;;13.07;;
48526;SDS011;34317;51.660;5.824;2023-02-22T13:45:08;19.08;;;12.15;;
48526;SDS011;34317;51.660;5.824;2023-02-22T13:50:33;23.10;;;13.20;;
48526;SDS011;34317;51.660;5.824;2023-02-22T13:53:13;22.58;;;12.75;;
48526;SDS011;34317;51.660;5.824;2023-02-22T13:55:46;22.02;;;12.85;;
48526;SDS011;34317;51.660;5.824;2023-02-22T13:58:18;21.60;;;12.50;;
48526;SDS011;34317;51.660;5.824;2023-02-22T14:00:48;20.63;;;13.30;;
48526;SDS011;34317;51.660;5.824;2023-02-22T14:03:27;21.65;;;13.32;;
48526;SDS011;34317;51.660;5.824;2023-02-22T14:06:03;22.80;;;12.30;;
48526;SDS011;34317;51.660;5.824;2023-02-22T14:11:03;20.38;;;12.73;;
48526;SDS011;34317;51.660;5.824;2023-02-22T14:16:24;20.92;;;12.55;;
48526;SDS011;34317;51.660;5.824;2023-02-22T14:21:56;20.15;;;12.57;;
48526;SDS011;34317;51.660;5.824;2023-02-22T14:24:28;18.55;;;12.20;;
48526;SDS011;34317;51.660;5.824;2023-02-22T14:27:08;20.17;;;12.27;;
48526;SDS011;34317;51.660;5.824;2023-02-22T14:29:37;18.25;;;11.93;;
48526;SDS011;34317;51.660;5.824;2023-02-22T14:32:16;21.50;;;12.18;;
48526;SDS011;34317;51.660;5.824;2023-02-22T14:37:25;19.92;;;11.95;;
48526;SDS011;34317;51.660;5.824;2023-02-22T14:39:57;20.65;;;11.90;;
48526;SDS011;34317;51.660;5.824;2023-02-22T14:42:33;20.92;;;12.68;;
48526;SDS011;34317;51.660;5.824;2023-02-22T14:50:21;20.10;;;11.77;;
48526;SDS011;34317;51.660;5.824;2023-02-22T14:53:00;20.67;;;12.65;;
48526;SDS011;34317;51.660;5.824;2023-02-22T14:55:30;22.25;;;13.13;;
48526;SDS011;34317;51.660;5.824;2023-02-22T14:58:10;20.88;;;12.48;;
48526;SDS011;34317;51.660;5.824;2023-02-22T15:00:45;17.90;;;11.40;;
48526;SDS011;34317;51.660;5.824;2023-02-22T15:03:24;20.10;;;12.98;;
48526;SDS011;34317;51.660;5.824;2023-02-22T15:08:48;22.75;;;12.82;;
48526;SDS011;34317;51.660;5.824;2023-02-22T15:14:30;23.60;;;12.95;;
48526;SDS011;34317;51.660;5.824;2023-02-22T15:17:07;21.38;;;13.10;;
48526;SDS011;34317;51.660;5.824;2023-02-22T15:19:46;22.15;;;12.88;;
48526;SDS011;34317;51.660;5.824;2023-02-22T15:22:24;19.70;;;12.35;;
48526;SDS011;34317;51.660;5.824;2023-02-22T15:25:03;23.83;;;13.05;;
48526;SDS011;34317;51.660;5.824;2023-02-22T15:27:32;24.40;;;13.10;;
48526;SDS011;34317;51.660;5.824;2023-02-22T15:30:07;20.25;;;12.43;;
48526;SDS011;34317;51.660;5.824;2023-02-22T15:32:42;27.23;;;13.48;;
48526;SDS011;34317;51.660;5.824;2023-02-22T15:35:29;21.08;;;12.57;;
48526;SDS011;34317;51.660;5.824;2023-02-22T15:40:29;38.85;;;15.45;;
48526;SDS011;34317;51.660;5.824;2023-02-22T15:43:00;24.63;;;14.15;;
48526;SDS011;34317;51.660;5.824;2023-02-22T15:45:30;28.05;;;14.65;;
48526;SDS011;34317;51.660;5.824;2023-02-22T15:47:58;23.63;;;14.98;;
48526;SDS011;34317;51.660;5.824;2023-02-22T15:50:30;24.27;;;14.38;;
48526;SDS011;34317;51.660;5.824;2023-02-22T15:53:01;25.02;;;14.85;;
48526;SDS011;34317;51.660;5.824;2023-02-22T15:55:34;22.73;;;14.15;;
48526;SDS011;34317;51.660;5.824;2023-02-22T16:00:42;24.30;;;14.60;;
48526;SDS011;34317;51.660;5.824;2023-02-22T16:03:17;26.52;;;15.73;;
48526;SDS011;34317;51.660;5.824;2023-02-22T16:05:54;25.08;;;16.05;;
48526;SDS011;34317;51.660;5.824;2023-02-22T16:08:24;23.23;;;15.57;;
48526;SDS011;34317;51.660;5.824;2023-02-22T16:10:58;24.45;;;15.15;;
48526;SDS011;34317;51.660;5.824;2023-02-22T16:13:32;25.87;;;16.00;;
48526;SDS011;34317;51.660;5.824;2023-02-22T16:16:02;23.35;;;15.35;;
48526;SDS011;34317;51.660;5.824;2023-02-22T16:18:32;22.17;;;14.90;;
48526;SDS011;34317;51.660;5.824;2023-02-22T16:21:03;23.30;;;15.00;;
48526;SDS011;34317;51.660;5.824;2023-02-22T16:23:42;26.65;;;15.75;;
48526;SDS011;34317;51.660;5.824;2023-02-22T16:26:31;27.50;;;14.93;;
48526;SDS011;34317;51.660;5.824;2023-02-22T16:29:01;25.60;;;15.18;;
48526;SDS011;34317;51.660;5.824;2023-02-22T16:31:35;26.42;;;14.63;;
48526;SDS011;34317;51.660;5.824;2023-02-22T16:34:06;25.85;;;15.85;;
48526;SDS011;34317;51.660;5.824;2023-02-22T16:36:44;22.13;;;15.23;;
48526;SDS011;34317;51.660;5.824;2023-02-22T16:41:53;26.65;;;16.15;;
48526;SDS011;34317;51.660;5.824;2023-02-22T16:44:23;24.48;;;15.35;;
48526;SDS011;34317;51.660;5.824;2023-02-22T16:46:51;22.88;;;15.75;;
48526;SDS011;34317;51.660;5.824;2023-02-22T16:49:20;23.58;;;15.25;;
48526;SDS011;34317;51.660;5.824;2023-02-22T16:51:55;27.40;;;16.00;;
48526;SDS011;34317;51.660;5.824;2023-02-22T16:54:27;23.80;;;15.88;;
48526;SDS011;34317;51.660;5.824;2023-02-22T16:57:00;26.60;;;16.05;;
48526;SDS011;34317;51.660;5.824;2023-02-22T16:59:30;24.38;;;16.25;;
48526;SDS011;34317;51.660;5.824;2023-02-22T17:02:01;26.98;;;16.35;;
48526;SDS011;34317;51.660;5.824;2023-02-22T17:04:33;23.50;;;15.30;;
48526;SDS011;34317;51.660;5.824;2023-02-22T17:07:00;24.73;;;16.27;;
48526;SDS011;34317;51.660;5.824;2023-02-22T17:09:31;26.67;;;16.40;;
48526;SDS011;34317;51.660;5.824;2023-02-22T17:11:59;25.55;;;16.00;;
48526;SDS011;34317;51.660;5.824;2023-02-22T17:14:29;27.42;;;16.42;;
48526;SDS011;34317;51.660;5.824;2023-02-22T17:16:59;25.45;;;16.48;;
48526;SDS011;34317;51.660;5.824;2023-02-22T17:19:26;26.40;;;16.17;;